createdAt,value
2022-08-05T13:21:47.809Z,3.28
2022-08-05T13:24:57.626Z,5.00
2022-08-05T13:27:50.186Z,1.75
2022-08-05T13:30:35.674Z,4.83
2022-08-05T13:33:06.233Z,4.32
2022-08-05T13:35:51.395Z,2.28
2022-08-05T13:38:30.704Z,2.00
2022-08-05T13:41:25.808Z,3.47
2022-08-05T13:44:29.647Z,2.90
2022-08-05T13:47:04.732Z,3.75
2022-08-05T13:49:35.849Z,4.50
2022-08-05T13:52:13.721Z,2.88
2022-08-05T13:54:41.183Z,3.33
2022-08-05T13:57:12.734Z,3.00
2022-08-05T14:00:11.532Z,3.80
2022-08-05T14:03:04.575Z,3.78
2022-08-05T14:06:25.605Z,2.28
2022-08-05T14:09:18.663Z,2.40
2022-08-05T14:15:00.963Z,3.17
2022-08-05T14:18:02.416Z,4.32
2022-08-05T14:20:31.233Z,2.03
2022-08-05T14:23:06.625Z,2.35
2022-08-05T14:25:33.605Z,4.38
2022-08-05T14:28:05.855Z,4.45
2022-08-05T14:30:33.162Z,3.60
2022-08-05T14:33:05.981Z,5.00
2022-08-05T14:35:37.226Z,4.53
2022-08-05T14:38:36.492Z,2.15
2022-08-05T14:42:19.674Z,3.95
2022-08-05T14:44:39.445Z,3.22
2022-08-05T14:50:35.976Z,2.53
2022-08-05T14:53:16.305Z,3.53
2022-08-05T14:55:43.156Z,2.97
2022-08-05T14:58:47.906Z,10.10
2022-08-05T15:01:48.115Z,16.58
2022-08-05T15:04:28.882Z,9.05
2022-08-05T15:08:05.476Z,6.15
2022-08-05T15:10:01.596Z,3.88
2022-08-05T15:12:57.671Z,4.13
2022-08-05T15:15:55.468Z,5.53
2022-08-05T15:18:26.206Z,6.35
2022-08-05T15:20:56.149Z,2.53
2022-08-05T15:23:34.111Z,4.28
2022-08-05T15:26:31.782Z,4.28
2022-08-05T15:28:59.191Z,3.15
2022-08-05T15:31:34.567Z,5.80
2022-08-05T15:34:32.490Z,3.25
2022-08-05T15:37:00.521Z,6.13
2022-08-05T15:41:02.132Z,5.78
2022-08-05T15:42:53.666Z,3.55
2022-08-05T15:45:14.718Z,4.10
2022-08-05T15:47:43.032Z,4.18
2022-08-05T15:50:37.327Z,4.18
2022-08-05T15:53:05.695Z,5.07
2022-08-05T15:56:03.044Z,2.90
2022-08-05T15:59:24.119Z,6.10
2022-08-05T16:02:02.866Z,2.35
2022-08-05T16:04:49.260Z,3.50
2022-08-05T16:07:25.734Z,3.65
2022-08-05T16:10:25.585Z,5.13
2022-08-05T16:13:13.737Z,9.05
2022-08-05T16:15:51.865Z,4.60
2022-08-05T16:18:19.103Z,3.88
2022-08-05T16:20:51.895Z,3.03
2022-08-05T16:23:18.761Z,4.22
2022-08-05T16:26:13.654Z,4.05
2022-08-05T16:28:41.363Z,4.07
2022-08-05T16:31:56.186Z,2.45
2022-08-05T16:34:36.408Z,4.68
2022-08-05T16:38:02.845Z,4.57
2022-08-05T16:40:26.730Z,8.43
2022-08-05T16:43:23.463Z,3.05
2022-08-05T16:46:12.813Z,4.30
2022-08-05T16:48:50.964Z,5.78
2022-08-05T16:51:21.649Z,4.63
2022-08-05T16:54:28.608Z,4.88
2022-08-05T16:57:06.662Z,4.63
2022-08-05T16:59:49.618Z,8.23
2022-08-05T17:02:28.838Z,2.38
2022-08-05T17:04:57.051Z,6.75
2022-08-05T17:07:38.984Z,3.55
2022-08-05T17:10:14.547Z,6.20
2022-08-05T17:12:51.219Z,2.50
2022-08-05T17:15:19.446Z,3.47
2022-08-05T17:17:55.015Z,3.38
2022-08-05T17:20:22.294Z,2.83
2022-08-05T17:24:06.032Z,2.92
2022-08-05T17:26:13.537Z,3.08
2022-08-05T17:28:42.031Z,3.20
2022-08-05T17:31:24.512Z,4.05
2022-08-05T17:34:03.275Z,3.85
2022-08-05T17:36:40.763Z,4.60
2022-08-05T17:39:24.305Z,7.50
2022-08-05T17:42:19.658Z,5.55
2022-08-05T17:44:50.727Z,3.85
2022-08-05T17:47:23.013Z,2.53
2022-08-05T17:50:00.270Z,4.00
2022-08-05T17:52:32.208Z,4.80
2022-08-05T17:55:07.890Z,3.33
2022-08-05T17:57:34.976Z,6.65
2022-08-05T18:00:12.065Z,4.85
2022-08-05T18:02:49.815Z,2.90
2022-08-05T18:05:17.611Z,7.22
2022-08-05T18:07:49.797Z,3.75
2022-08-05T18:10:20.802Z,5.47
2022-08-05T18:12:53.631Z,5.25
2022-08-05T18:15:23.720Z,4.80
2022-08-05T18:17:58.890Z,5.50
2022-08-05T18:20:37.764Z,7.82
2022-08-05T18:23:11.522Z,5.35
2022-08-05T18:25:45.295Z,7.75
2022-08-05T18:28:22.153Z,7.20
2022-08-05T18:31:06.024Z,7.72
2022-08-05T18:33:46.796Z,9.48
2022-08-05T18:36:27.952Z,5.95
2022-08-05T18:39:01.393Z,7.25
2022-08-05T18:41:56.952Z,5.93
2022-08-05T18:44:15.182Z,7.05
2022-08-05T18:47:09.072Z,6.30
2022-08-05T18:50:11.173Z,7.00
2022-08-05T18:52:51.377Z,7.68
2022-08-05T18:55:19.163Z,6.90
2022-08-05T18:57:54.211Z,8.32
2022-08-05T19:00:37.723Z,6.28
2022-08-05T19:03:12.881Z,9.77
2022-08-05T19:06:11.363Z,12.23
2022-08-05T19:08:30.440Z,7.40
2022-08-05T19:11:02.791Z,7.88
2022-08-05T19:13:38.756Z,9.07
2022-08-05T19:19:00.480Z,10.68
2022-08-05T19:21:34.344Z,11.63
2022-08-05T19:24:34.488Z,9.82
2022-08-05T19:27:11.531Z,9.60
2022-08-05T19:29:43.568Z,8.23
2022-08-05T19:32:11.846Z,11.07
2022-08-05T19:34:54.616Z,8.48
2022-08-05T19:37:47.407Z,7.32
2022-08-05T19:40:27.595Z,7.30
2022-08-05T19:43:04.501Z,8.63
2022-08-05T19:45:39.891Z,5.93
2022-08-05T19:48:22.595Z,7.85
2022-08-05T19:52:05.364Z,8.63
2022-08-05T19:56:59.551Z,6.95
2022-08-05T19:59:55.225Z,7.45
2022-08-05T20:02:17.588Z,8.40
2022-08-05T20:04:46.079Z,6.57
2022-08-05T20:07:14.012Z,6.93
2022-08-05T20:09:55.109Z,8.48
2022-08-05T20:12:24.887Z,7.60
2022-08-05T20:14:53.003Z,6.35
2022-08-05T20:17:23.665Z,8.02
2022-08-05T20:19:56.766Z,8.00
2022-08-05T20:22:26.723Z,7.07
2022-08-05T20:24:55.698Z,12.30
2022-08-05T20:27:27.002Z,7.10
2022-08-05T20:29:58.946Z,7.97
2022-08-05T20:32:27.187Z,7.72
2022-08-05T20:34:54.546Z,9.13
2022-08-05T20:38:04.873Z,5.65
2022-08-05T20:40:09.214Z,12.68
2022-08-05T20:42:36.235Z,8.35
2022-08-05T20:45:05.270Z,7.05
2022-08-05T20:47:33.235Z,8.40
2022-08-05T20:50:02.002Z,10.63
2022-08-05T20:52:29.641Z,7.63
2022-08-05T20:55:15.892Z,10.00
2022-08-05T20:57:45.033Z,7.63
2022-08-05T21:00:40.831Z,6.28
2022-08-05T21:03:06.107Z,10.68
2022-08-05T21:05:47.467Z,9.60
2022-08-05T21:08:15.460Z,6.22
2022-08-05T21:10:48.690Z,6.70
2022-08-05T21:13:35.095Z,8.50
2022-08-05T21:16:03.549Z,7.28
2022-08-05T21:18:30.756Z,8.38
2022-08-05T21:20:57.595Z,8.25
2022-08-05T21:23:24.734Z,10.30
2022-08-05T21:25:51.842Z,6.00
2022-08-05T21:28:23.741Z,6.65
2022-08-05T21:30:51.030Z,7.30
2022-08-05T21:33:22.365Z,6.45
2022-08-05T21:35:58.172Z,6.13
2022-08-05T21:38:27.641Z,5.30
2022-08-05T21:40:54.467Z,4.80
2022-08-05T21:43:24.745Z,6.60
2022-08-05T21:45:57.759Z,4.93
2022-08-05T21:48:27.941Z,5.82
2022-08-05T21:50:55.568Z,5.40
2022-08-05T21:53:27.292Z,4.88
2022-08-05T21:56:05.098Z,5.80
2022-08-05T21:58:42.379Z,5.25
2022-08-05T22:01:10.668Z,6.03
2022-08-05T22:03:52.363Z,3.60
2022-08-05T22:06:22.346Z,6.05
2022-08-05T22:08:52.148Z,7.90
2022-08-05T22:11:34.660Z,6.65
2022-08-05T22:14:31.450Z,4.70
2022-08-05T22:16:51.795Z,3.80
2022-08-05T22:20:02.477Z,3.92
2022-08-05T22:22:07.411Z,5.30
2022-08-05T22:24:55.915Z,4.43
2022-08-05T22:28:04.854Z,5.07
2022-08-05T22:30:34.875Z,4.07
2022-08-05T22:33:02.977Z,3.67
2022-08-05T22:35:31.111Z,3.17
2022-08-05T22:38:15.070Z,3.83
2022-08-05T22:40:42.051Z,5.10
2022-08-05T22:43:16.529Z,4.45
2022-08-05T22:46:08.847Z,2.85
2022-08-05T22:48:41.892Z,3.55
2022-08-05T22:51:15.626Z,6.63
2022-08-05T22:53:50.486Z,1.58
2022-08-05T22:56:30.753Z,3.33
2022-08-05T22:59:04.094Z,3.40
2022-08-05T23:02:04.858Z,2.35
2022-08-05T23:04:33.253Z,2.30
2022-08-05T23:07:00.055Z,3.42
2022-08-05T23:09:52.756Z,4.10
2022-08-05T23:12:13.603Z,2.90
2022-08-05T23:14:40.447Z,3.00
2022-08-05T23:17:34.315Z,2.75
2022-08-05T23:20:10.117Z,1.85
2022-08-05T23:22:44.154Z,4.45
2022-08-05T23:25:50.158Z,3.78
2022-08-05T23:28:02.499Z,3.03
2022-08-05T23:30:31.321Z,2.75
2022-08-05T23:32:58.911Z,3.22
2022-08-05T23:35:28.677Z,2.08
2022-08-05T23:38:01.377Z,4.32
2022-08-05T23:40:28.208Z,1.42
2022-08-05T23:42:55.063Z,2.65
2022-08-05T23:45:23.641Z,4.50
2022-08-05T23:47:53.874Z,4.50
2022-08-05T23:50:26.620Z,2.20
2022-08-05T23:52:55.328Z,1.55
2022-08-05T23:55:22.618Z,2.95
2022-08-05T23:57:57.851Z,2.65
